createdAt,value
2023-04-29T00:01:07.534Z,9.81
2023-04-29T00:03:34.876Z,9.81
2023-04-29T00:06:02.386Z,9.79
2023-04-29T00:08:29.462Z,9.76
2023-04-29T00:10:56.332Z,9.77
2023-04-29T00:13:23.230Z,9.77
2023-04-29T00:15:50.836Z,9.76
2023-04-29T00:18:17.716Z,9.76
2023-04-29T00:20:44.552Z,9.73
2023-04-29T00:23:11.883Z,9.73
2023-04-29T00:25:38.944Z,9.76
2023-04-29T00:28:06.516Z,9.72
2023-04-29T00:30:34.814Z,9.72
2023-04-29T00:33:02.112Z,9.71
2023-04-29T00:35:29.729Z,9.75
2023-04-29T00:37:57.091Z,9.71
2023-04-29T00:40:24.353Z,9.72
2023-04-29T00:42:51.408Z,9.70
2023-04-29T00:45:18.365Z,9.74
2023-04-29T00:47:45.252Z,9.74
2023-04-29T00:50:12.674Z,9.73
2023-04-29T00:52:40.412Z,9.70
2023-04-29T00:55:09.100Z,9.71
2023-04-29T00:57:36.138Z,9.70
2023-04-29T01:00:04.517Z,9.70
2023-04-29T01:02:31.800Z,9.71
2023-04-29T01:04:58.896Z,9.71
2023-04-29T01:07:48.913Z,9.70
2023-04-29T01:10:35.522Z,9.67
2023-04-29T01:13:18.320Z,9.71
2023-04-29T01:16:04.340Z,9.71
2023-04-29T01:18:43.835Z,9.72
2023-04-29T01:21:12.099Z,9.68
2023-04-29T01:23:39.559Z,9.69
2023-04-29T01:26:08.316Z,9.70
2023-04-29T01:29:11.615Z,9.68
2023-04-29T01:31:46.975Z,9.63
2023-04-29T01:34:27.642Z,9.51
2023-04-29T01:37:13.121Z,9.45
2023-04-29T01:39:50.620Z,9.39
2023-04-29T01:42:31.254Z,9.37
2023-04-29T01:45:02.092Z,9.38
2023-04-29T01:47:30.098Z,9.40
2023-04-29T01:49:57.108Z,9.42
2023-04-29T01:52:24.100Z,9.46
2023-04-29T01:54:55.280Z,9.47
2023-04-29T01:57:22.350Z,9.46
2023-04-29T01:59:58.000Z,9.47
2023-04-29T02:02:31.093Z,9.46
2023-04-29T02:05:07.962Z,9.48
2023-04-29T02:07:40.005Z,9.50
2023-04-29T02:10:07.424Z,9.53
2023-04-29T02:12:36.707Z,9.54
2023-04-29T02:15:04.391Z,9.57
2023-04-29T02:17:31.312Z,9.56
2023-04-29T02:19:58.232Z,9.55
2023-04-29T02:22:25.172Z,9.54
2023-04-29T02:24:55.382Z,9.54
2023-04-29T02:27:22.935Z,9.55
2023-04-29T02:29:51.612Z,9.51
2023-04-29T02:32:20.736Z,9.54
2023-04-29T02:34:47.780Z,9.59
2023-04-29T02:37:15.918Z,9.58
2023-04-29T02:39:43.004Z,9.55
2023-04-29T02:42:10.022Z,9.53
2023-04-29T02:44:36.878Z,9.53
2023-04-29T02:47:04.044Z,9.51
2023-04-29T02:49:31.121Z,9.51
2023-04-29T02:51:58.640Z,9.53
2023-04-29T02:54:25.898Z,9.53
2023-04-29T02:56:53.052Z,9.54
2023-04-29T02:59:20.009Z,9.54
2023-04-29T03:01:47.761Z,9.55
2023-04-29T03:04:14.925Z,9.54
2023-04-29T03:06:42.345Z,9.54
2023-04-29T03:09:11.633Z,9.54
2023-04-29T03:11:39.009Z,9.55
2023-04-29T03:14:06.218Z,9.54
2023-04-29T03:16:33.431Z,9.53
2023-04-29T03:19:00.534Z,9.54
2023-04-29T03:21:27.771Z,9.54
2023-04-29T03:23:55.295Z,9.53
2023-04-29T03:26:28.867Z,9.50
2023-04-29T03:28:56.030Z,9.51
2023-04-29T03:31:24.565Z,9.51
2023-04-29T03:33:53.515Z,9.51
2023-04-29T03:36:21.806Z,9.52
2023-04-29T03:39:08.381Z,9.52
2023-04-29T03:41:36.298Z,9.51
2023-04-29T03:44:03.351Z,9.51
2023-04-29T03:46:30.501Z,9.50
2023-04-29T03:48:57.933Z,9.48
2023-04-29T03:51:26.081Z,9.48
2023-04-29T03:54:00.267Z,9.49
2023-04-29T03:56:27.488Z,9.45
2023-04-29T03:58:54.615Z,9.43
2023-04-29T04:01:23.807Z,9.47
2023-04-29T04:03:52.571Z,9.48
2023-04-29T04:06:19.865Z,9.52
2023-04-29T04:08:47.666Z,9.48
2023-04-29T04:11:18.838Z,9.51
2023-04-29T04:13:50.772Z,9.47
2023-04-29T04:16:18.617Z,9.47
2023-04-29T04:18:45.791Z,9.47
2023-04-29T04:21:13.496Z,9.46
2023-04-29T04:23:44.240Z,9.46
2023-04-29T04:26:14.467Z,9.47
2023-04-29T04:28:47.278Z,9.49
2023-04-29T04:31:25.700Z,9.52
2023-04-29T04:33:52.996Z,9.53
2023-04-29T04:36:20.868Z,9.56
2023-04-29T04:38:48.139Z,9.53
2023-04-29T04:41:15.610Z,9.44
2023-04-29T04:43:45.196Z,9.35
2023-04-29T04:46:35.461Z,9.29
2023-04-29T04:49:28.443Z,9.24
2023-04-29T04:51:59.838Z,9.15
2023-04-29T04:54:26.917Z,9.07
2023-04-29T04:57:06.330Z,8.99
2023-04-29T04:59:33.888Z,9.01
2023-04-29T05:02:01.002Z,8.95
2023-04-29T05:04:28.115Z,8.90
2023-04-29T05:06:55.669Z,8.84
2023-04-29T05:09:24.310Z,8.76
2023-04-29T05:11:51.296Z,8.75
2023-04-29T05:14:18.940Z,8.74
2023-04-29T05:16:46.796Z,8.74
2023-04-29T05:19:14.173Z,8.76
2023-04-29T05:21:41.258Z,8.77
2023-04-29T05:24:10.341Z,8.79
2023-04-29T05:26:38.440Z,8.79
2023-04-29T05:29:06.998Z,8.84
2023-04-29T05:31:43.615Z,8.91
2023-04-29T05:34:10.483Z,8.93
2023-04-29T05:36:37.395Z,9.01
2023-04-29T05:39:04.653Z,9.08
2023-04-29T05:41:31.550Z,9.14
2023-04-29T05:44:18.879Z,9.19
2023-04-29T05:46:46.623Z,9.21
2023-04-29T05:49:13.584Z,9.25
2023-04-29T05:51:41.862Z,9.28
2023-04-29T05:54:08.934Z,9.33
2023-04-29T05:56:35.981Z,9.38
2023-04-29T05:59:03.037Z,9.46
2023-04-29T06:01:29.886Z,9.53
2023-04-29T06:03:58.156Z,9.59
2023-04-29T06:06:26.060Z,9.63
2023-04-29T06:09:03.178Z,9.66
2023-04-29T06:11:32.900Z,9.72
2023-04-29T06:14:01.594Z,9.77
2023-04-29T06:16:28.951Z,9.81
2023-04-29T06:18:56.068Z,9.84
2023-04-29T06:21:22.993Z,9.89
2023-04-29T06:23:49.908Z,9.91
2023-04-29T06:26:17.693Z,9.95
2023-04-29T06:28:45.046Z,9.97
2023-04-29T06:31:12.708Z,10.01
2023-04-29T06:33:39.993Z,10.06
2023-04-29T06:36:06.950Z,10.09
2023-04-29T06:38:52.464Z,10.11
2023-04-29T06:41:32.166Z,10.15
2023-04-29T06:44:10.132Z,10.23
2023-04-29T06:46:46.560Z,10.27
2023-04-29T06:49:27.561Z,10.30
2023-04-29T06:51:55.024Z,10.39
2023-04-29T06:54:22.088Z,10.40
2023-04-29T06:56:51.315Z,10.47
2023-04-29T06:59:18.123Z,10.47
2023-04-29T07:01:46.068Z,10.51
2023-04-29T07:04:14.180Z,10.54
2023-04-29T07:06:41.313Z,10.61
2023-04-29T07:09:08.262Z,10.65
2023-04-29T07:11:37.257Z,10.63
2023-04-29T07:14:04.069Z,10.71
2023-04-29T07:16:31.087Z,10.71
2023-04-29T07:18:58.020Z,10.71
2023-04-29T07:21:25.224Z,10.65
2023-04-29T07:23:52.908Z,10.62
2023-04-29T07:26:19.864Z,10.74
2023-04-29T07:28:48.013Z,10.81
2023-04-29T07:31:15.311Z,10.84
2023-04-29T07:33:42.346Z,10.83
2023-04-29T07:36:11.119Z,10.87
2023-04-29T07:38:38.210Z,10.99
2023-04-29T07:41:05.489Z,11.01
2023-04-29T07:43:32.762Z,11.06
2023-04-29T07:45:59.914Z,11.12
2023-04-29T07:48:27.048Z,11.27
2023-04-29T07:50:54.724Z,11.38
2023-04-29T07:53:21.971Z,11.35
2023-04-29T07:55:50.877Z,11.46
2023-04-29T07:58:19.319Z,11.61
2023-04-29T08:00:47.513Z,11.65
2023-04-29T08:03:14.725Z,11.73
2023-04-29T08:05:43.458Z,11.80
2023-04-29T08:08:14.726Z,11.88
2023-04-29T08:10:43.287Z,11.94
2023-04-29T08:13:10.250Z,11.99
2023-04-29T08:15:37.251Z,12.02
2023-04-29T08:18:04.180Z,12.17
2023-04-29T08:20:31.128Z,12.32
2023-04-29T08:23:00.549Z,12.32
2023-04-29T08:25:27.783Z,12.20
2023-04-29T08:27:54.786Z,12.19
2023-04-29T08:30:22.420Z,12.15
2023-04-29T08:32:49.545Z,12.06
2023-04-29T08:35:16.879Z,12.14
2023-04-29T08:37:44.108Z,12.28
2023-04-29T08:40:11.382Z,12.31
2023-04-29T08:42:38.208Z,12.37
2023-04-29T08:45:06.261Z,12.42
2023-04-29T08:47:34.537Z,12.60
2023-04-29T08:50:06.037Z,12.75
2023-04-29T08:52:33.587Z,12.92
2023-04-29T08:55:02.853Z,12.84
2023-04-29T08:57:31.475Z,12.99
2023-04-29T09:00:01.418Z,13.38
2023-04-29T09:02:29.299Z,13.67
2023-04-29T09:05:09.380Z,13.89
2023-04-29T09:07:37.684Z,13.81
2023-04-29T09:10:05.792Z,13.84
2023-04-29T09:12:32.673Z,13.84
2023-04-29T09:15:00.249Z,13.85
2023-04-29T09:17:47.579Z,13.66
2023-04-29T09:20:20.441Z,13.72
2023-04-29T09:22:53.535Z,13.45
2023-04-29T09:25:21.281Z,13.34
2023-04-29T09:27:48.191Z,13.33
2023-04-29T09:30:16.783Z,13.35
2023-04-29T09:32:45.331Z,13.55
2023-04-29T09:35:28.452Z,13.47
2023-04-29T09:38:15.616Z,13.53
2023-04-29T09:40:58.371Z,13.80
2023-04-29T09:43:26.505Z,13.93
2023-04-29T09:45:53.782Z,14.19
2023-04-29T09:48:20.799Z,14.19
2023-04-29T09:51:02.262Z,14.27
2023-04-29T09:53:31.672Z,14.28
2023-04-29T09:56:02.816Z,14.48
2023-04-29T09:58:31.610Z,14.75
2023-04-29T10:01:02.712Z,14.51
2023-04-29T10:03:37.471Z,14.60
2023-04-29T10:06:06.729Z,14.58
2023-04-29T10:08:34.825Z,14.44
2023-04-29T10:11:03.597Z,14.26
2023-04-29T10:13:31.325Z,13.92
2023-04-29T10:16:09.143Z,13.82
2023-04-29T10:18:38.102Z,13.84
2023-04-29T10:21:09.713Z,13.60
2023-04-29T10:23:37.842Z,13.46
2023-04-29T10:26:07.203Z,13.41
2023-04-29T10:28:36.063Z,13.48
2023-04-29T10:31:03.700Z,13.28
2023-04-29T10:33:35.731Z,13.34
2023-04-29T10:36:03.446Z,13.36
2023-04-29T10:38:45.108Z,13.48
2023-04-29T10:41:21.109Z,13.32
2023-04-29T10:43:48.363Z,13.43
2023-04-29T10:46:23.771Z,13.39
2023-04-29T10:48:56.566Z,13.40
2023-04-29T10:51:39.666Z,13.14
2023-04-29T10:54:15.104Z,13.30
2023-04-29T10:56:50.592Z,13.41
2023-04-29T10:59:22.824Z,13.51
2023-04-29T11:01:52.026Z,13.37
2023-04-29T11:04:23.048Z,13.48
2023-04-29T11:06:55.591Z,13.35
2023-04-29T11:09:26.487Z,13.12
2023-04-29T11:11:58.129Z,13.20
2023-04-29T11:14:41.424Z,13.17
2023-04-29T11:17:21.541Z,13.29
2023-04-29T11:19:52.391Z,13.32
2023-04-29T11:22:19.538Z,13.39
2023-04-29T11:24:57.491Z,13.25
2023-04-29T11:27:26.710Z,13.41
2023-04-29T11:29:58.747Z,13.55
2023-04-29T11:32:32.543Z,13.64
2023-04-29T11:35:09.594Z,13.56
2023-04-29T11:37:37.330Z,13.57
2023-04-29T11:40:05.728Z,13.50
2023-04-29T11:42:48.245Z,13.66
2023-04-29T11:45:18.107Z,13.60
2023-04-29T11:47:46.826Z,13.73
2023-04-29T11:50:17.163Z,13.59
2023-04-29T11:52:45.052Z,13.53
2023-04-29T11:55:12.312Z,13.77
2023-04-29T11:57:40.853Z,13.87
2023-04-29T12:00:12.867Z,13.91
2023-04-29T12:02:43.744Z,13.97
2023-04-29T12:05:13.346Z,14.14
2023-04-29T12:07:40.729Z,14.12
2023-04-29T12:10:12.252Z,14.18
2023-04-29T12:12:46.657Z,14.48
2023-04-29T12:15:14.575Z,14.45
2023-04-29T12:17:42.809Z,14.42
2023-04-29T12:20:10.946Z,14.31
2023-04-29T12:22:38.425Z,14.57
2023-04-29T12:25:06.584Z,14.62
2023-04-29T12:27:36.518Z,14.49
2023-04-29T12:30:08.315Z,14.50
2023-04-29T12:32:36.981Z,14.80
2023-04-29T12:35:04.247Z,15.06
2023-04-29T12:37:31.355Z,15.01
2023-04-29T12:39:58.305Z,15.19
2023-04-29T12:42:33.203Z,15.17
2023-04-29T12:45:00.216Z,15.09
2023-04-29T12:47:33.948Z,14.99
2023-04-29T12:50:01.303Z,14.83
2023-04-29T12:52:28.379Z,14.82
2023-04-29T12:54:57.762Z,14.74
2023-04-29T12:57:26.512Z,14.94
2023-04-29T12:59:53.650Z,14.69
2023-04-29T13:02:20.694Z,14.64
2023-04-29T13:04:47.908Z,14.66
2023-04-29T13:07:16.002Z,14.67
2023-04-29T13:09:42.872Z,14.47
2023-04-29T13:12:09.836Z,14.46
2023-04-29T13:14:37.202Z,14.74
2023-04-29T13:17:04.244Z,14.75
2023-04-29T13:19:48.183Z,14.43
2023-04-29T13:22:18.041Z,14.19
2023-04-29T13:24:45.004Z,14.19
2023-04-29T13:27:11.996Z,14.56
2023-04-29T13:29:39.165Z,14.65
2023-04-29T13:32:06.219Z,14.58
2023-04-29T13:34:33.142Z,14.34
2023-04-29T13:36:59.995Z,14.32
2023-04-29T13:39:27.106Z,14.58
2023-04-29T13:41:58.652Z,14.72
2023-04-29T13:44:33.257Z,14.54
2023-04-29T13:47:06.458Z,14.47
2023-04-29T13:52:54.005Z,14.48
2023-04-29T13:59:53.445Z,14.56
2023-04-29T14:04:50.708Z,13.93
2023-04-29T14:07:17.959Z,13.97
2023-04-29T14:09:44.809Z,13.97
2023-04-29T14:12:11.781Z,14.06
2023-04-29T14:14:38.808Z,14.26
2023-04-29T14:17:06.082Z,14.28
2023-04-29T14:19:32.996Z,14.03
2023-04-29T14:22:00.191Z,13.97
2023-04-29T14:24:27.063Z,14.40
2023-04-29T14:26:54.309Z,14.26
2023-04-29T14:29:21.293Z,14.36
2023-04-29T14:31:48.213Z,14.15
2023-04-29T14:34:15.180Z,14.43
2023-04-29T14:36:42.197Z,14.39
2023-04-29T14:39:09.328Z,13.97
2023-04-29T14:41:36.147Z,14.07
2023-04-29T14:44:03.549Z,14.07
2023-04-29T14:46:32.337Z,14.13
2023-04-29T14:48:59.258Z,14.19
2023-04-29T14:51:27.444Z,14.31
2023-04-29T14:53:54.764Z,14.04
2023-04-29T14:56:22.092Z,14.05
2023-04-29T14:58:49.451Z,14.21
2023-04-29T15:01:16.497Z,13.87
2023-04-29T15:03:44.958Z,13.75
2023-04-29T15:06:13.103Z,14.18
2023-04-29T15:08:40.057Z,14.09
2023-04-29T15:11:07.017Z,14.24
2023-04-29T15:13:33.920Z,14.26
2023-04-29T15:16:00.980Z,14.71
2023-04-29T15:18:27.948Z,14.75
2023-04-29T15:20:54.834Z,14.08
2023-04-29T15:23:21.745Z,13.86
2023-04-29T15:25:48.811Z,13.79
2023-04-29T15:28:15.765Z,13.76
2023-04-29T15:30:42.720Z,13.65
2023-04-29T15:33:09.666Z,13.67
2023-04-29T15:35:36.885Z,13.49
2023-04-29T15:38:03.836Z,13.12
2023-04-29T15:40:30.759Z,13.03
2023-04-29T15:42:57.781Z,13.03
2023-04-29T15:45:25.010Z,12.87
2023-04-29T15:47:51.916Z,12.86
2023-04-29T15:50:18.846Z,12.96
2023-04-29T15:52:45.723Z,12.92
2023-04-29T15:55:12.984Z,13.01
2023-04-29T15:57:41.555Z,13.11
2023-04-29T16:00:09.814Z,12.89
2023-04-29T16:02:36.670Z,12.90
2023-04-29T16:05:03.765Z,13.14
2023-04-29T16:07:33.102Z,13.32
2023-04-29T16:10:01.672Z,13.70
2023-04-29T16:12:28.982Z,13.76
2023-04-29T16:14:55.922Z,13.43
2023-04-29T16:17:22.826Z,13.72
2023-04-29T16:19:49.855Z,13.52
2023-04-29T16:22:16.824Z,13.04
2023-04-29T16:24:43.688Z,13.08
2023-04-29T16:27:10.629Z,13.30
2023-04-29T16:29:38.498Z,13.91
2023-04-29T16:32:05.667Z,14.82
2023-04-29T16:34:32.499Z,15.06
2023-04-29T16:36:59.475Z,14.68
2023-04-29T16:39:26.863Z,14.12
2023-04-29T16:41:54.213Z,13.73
2023-04-29T16:44:21.410Z,13.66
2023-04-29T16:46:48.381Z,13.37
2023-04-29T16:49:19.447Z,13.05
2023-04-29T16:51:46.731Z,12.90
2023-04-29T16:54:13.947Z,13.07
2023-04-29T16:56:41.176Z,13.02
2023-04-29T16:59:08.153Z,12.91
2023-04-29T17:01:35.497Z,12.98
2023-04-29T17:04:02.728Z,13.25
2023-04-29T17:06:30.138Z,13.00
2023-04-29T17:08:57.509Z,12.92
2023-04-29T17:11:25.082Z,13.04
2023-04-29T17:13:51.952Z,13.06
2023-04-29T17:16:19.151Z,13.21
2023-04-29T17:18:46.499Z,13.06
2023-04-29T17:21:13.374Z,12.98
2023-04-29T17:23:40.296Z,12.87
2023-04-29T17:26:07.584Z,12.90
2023-04-29T17:28:34.503Z,12.88
2023-04-29T17:31:02.535Z,12.88
2023-04-29T17:33:34.607Z,12.74
2023-04-29T17:36:03.615Z,12.49
2023-04-29T17:38:34.507Z,12.33
2023-04-29T17:41:02.099Z,12.30
2023-04-29T17:43:32.467Z,12.15
2023-04-29T17:45:59.618Z,12.06
2023-04-29T17:48:26.647Z,11.93
2023-04-29T17:50:54.113Z,11.87
2023-04-29T17:53:21.002Z,11.79
2023-04-29T17:55:47.832Z,11.79
2023-04-29T17:58:15.202Z,11.68
2023-04-29T18:00:42.190Z,11.52
2023-04-29T18:03:09.171Z,11.50
2023-04-29T18:05:36.364Z,11.41
2023-04-29T18:08:03.347Z,11.40
2023-04-29T18:10:30.286Z,11.29
2023-04-29T18:12:57.557Z,11.15
2023-04-29T18:15:24.481Z,11.13
2023-04-29T18:17:51.491Z,11.14
2023-04-29T18:20:19.064Z,11.10
2023-04-29T18:22:46.550Z,10.99
2023-04-29T18:25:13.387Z,10.99
2023-04-29T18:27:40.398Z,10.99
2023-04-29T18:30:08.242Z,10.95
2023-04-29T18:32:35.265Z,11.01
2023-04-29T18:35:04.043Z,11.07
2023-04-29T18:37:31.244Z,11.07
2023-04-29T18:39:58.308Z,10.99
2023-04-29T18:42:25.968Z,10.90
2023-04-29T18:44:53.396Z,10.92
2023-04-29T18:47:20.687Z,10.88
2023-04-29T18:49:48.370Z,10.90
2023-04-29T18:52:15.409Z,10.90
2023-04-29T18:54:42.232Z,10.95
2023-04-29T18:57:09.223Z,11.01
2023-04-29T18:59:37.897Z,10.89
2023-04-29T19:02:06.536Z,10.77
2023-04-29T19:04:34.703Z,10.74
2023-04-29T19:07:02.104Z,10.69
2023-04-29T19:09:32.430Z,10.72
2023-04-29T19:12:00.427Z,10.70
2023-04-29T19:14:27.706Z,10.67
2023-04-29T19:16:54.957Z,10.66
2023-04-29T19:19:22.073Z,10.58
2023-04-29T19:21:49.138Z,10.55
2023-04-29T19:24:16.084Z,10.54
2023-04-29T19:26:43.321Z,10.60
2023-04-29T19:29:10.265Z,10.59
2023-04-29T19:31:37.966Z,10.63
2023-04-29T19:34:05.392Z,10.60
2023-04-29T19:36:33.124Z,10.41
2023-04-29T19:39:00.545Z,10.48
2023-04-29T19:41:27.706Z,10.55
2023-04-29T19:43:54.616Z,10.60
2023-04-29T19:46:21.541Z,10.59
2023-04-29T19:48:48.967Z,10.57
2023-04-29T19:51:16.261Z,10.57
2023-04-29T19:53:43.332Z,10.58
2023-04-29T19:56:10.461Z,10.55
2023-04-29T19:58:37.431Z,10.47
2023-04-29T20:01:04.498Z,10.47
2023-04-29T20:03:32.842Z,10.41
2023-04-29T20:06:00.256Z,10.38
2023-04-29T20:08:27.634Z,10.38
2023-04-29T20:10:54.495Z,10.34
2023-04-29T20:13:21.400Z,10.29
2023-04-29T20:15:48.649Z,10.30
2023-04-29T20:18:17.977Z,10.32
2023-04-29T20:20:45.573Z,10.37
2023-04-29T20:23:12.951Z,10.39
2023-04-29T20:25:39.857Z,10.43
2023-04-29T20:28:06.997Z,10.41
2023-04-29T20:30:33.796Z,10.41
2023-04-29T20:33:00.761Z,10.41
2023-04-29T20:35:27.803Z,10.34
2023-04-29T20:37:54.652Z,10.34
2023-04-29T20:40:21.652Z,10.34
2023-04-29T20:42:48.679Z,10.33
2023-04-29T20:45:15.862Z,10.24
2023-04-29T20:47:44.205Z,10.14
2023-04-29T20:50:12.163Z,10.13
2023-04-29T20:52:39.014Z,10.14
2023-04-29T20:55:06.663Z,10.15
2023-04-29T20:57:34.179Z,10.18
2023-04-29T21:00:01.232Z,10.14
2023-04-29T21:02:28.871Z,10.15
2023-04-29T21:04:56.034Z,10.11
2023-04-29T21:07:22.902Z,10.06
2023-04-29T21:09:50.293Z,10.13
2023-04-29T21:12:17.502Z,10.11
2023-04-29T21:14:44.728Z,10.00
2023-04-29T21:17:11.642Z,9.84
2023-04-29T21:19:38.640Z,9.72
2023-04-29T21:22:05.593Z,9.63
2023-04-29T21:24:32.465Z,9.49
2023-04-29T21:26:59.374Z,9.39
2023-04-29T21:29:26.473Z,9.32
2023-04-29T21:31:53.564Z,9.23
2023-04-29T21:34:20.499Z,9.11
2023-04-29T21:36:47.427Z,9.07
2023-04-29T21:39:14.302Z,9.01
2023-04-29T21:41:43.183Z,8.97
2023-04-29T21:44:10.300Z,8.89
2023-04-29T21:46:37.591Z,8.79
2023-04-29T21:49:04.741Z,8.74
2023-04-29T21:51:32.288Z,8.71
2023-04-29T21:53:59.455Z,8.67
2023-04-29T21:56:26.434Z,8.62
2023-04-29T21:58:53.893Z,8.54
2023-04-29T22:01:27.654Z,8.47
2023-04-29T22:03:56.941Z,8.40
2023-04-29T22:06:24.842Z,8.30
2023-04-29T22:08:51.856Z,8.24
2023-04-29T22:11:21.853Z,8.21
2023-04-29T22:13:49.000Z,8.14
2023-04-29T22:16:16.679Z,8.08
2023-04-29T22:18:43.545Z,8.03
2023-04-29T22:21:10.742Z,7.96
2023-04-29T22:23:37.595Z,7.89
2023-04-29T22:26:05.136Z,7.85
2023-04-29T22:28:32.125Z,7.93
2023-04-29T22:30:59.161Z,7.91
2023-04-29T22:33:26.318Z,7.89
2023-04-29T22:35:53.134Z,7.83
2023-04-29T22:38:20.055Z,7.76
2023-04-29T22:40:53.015Z,7.71
2023-04-29T22:43:19.994Z,7.74
2023-04-29T22:45:56.757Z,7.78
2023-04-29T22:48:25.951Z,7.90
2023-04-29T22:50:56.661Z,7.96
2023-04-29T22:53:24.197Z,7.99
2023-04-29T22:55:55.916Z,8.03
2023-04-29T22:58:26.882Z,8.05
2023-04-29T23:00:58.920Z,8.11
2023-04-29T23:03:27.477Z,8.17
2023-04-29T23:06:01.171Z,8.23
2023-04-29T23:08:28.753Z,8.27
2023-04-29T23:10:55.704Z,8.16
2023-04-29T23:13:22.674Z,7.99
2023-04-29T23:15:49.579Z,7.81
2023-04-29T23:18:16.491Z,7.69
2023-04-29T23:20:47.217Z,7.57
2023-04-29T23:23:14.328Z,7.48
2023-04-29T23:25:42.103Z,7.41
2023-04-29T23:28:09.398Z,7.41
2023-04-29T23:30:36.536Z,7.38
2023-04-29T23:33:03.597Z,7.36
2023-04-29T23:35:31.853Z,7.30
2023-04-29T23:37:59.113Z,7.25
2023-04-29T23:40:26.294Z,7.15
2023-04-29T23:42:53.445Z,7.08
2023-04-29T23:45:20.554Z,7.05
2023-04-29T23:47:47.556Z,7.02
2023-04-29T23:50:14.504Z,7.00
2023-04-29T23:52:41.576Z,6.96
2023-04-29T23:55:09.385Z,6.94
2023-04-29T23:57:36.259Z,7.00
